Time;durP1;ratioP1;P1;durP2;ratioP2;P2;SDS_P1;SDS_P2;PMS_P1;PMS_P2;Temp;Humidity;BMP_temperature;BMP_pressure;BME280_temperature;BME280_humidity;BME280_pressure;Samples;Min_cycle;Max_cycle;Signal;HPM_P1;HPM_P2
2023/03/30 00:00:59;;;;;;;;;5.50;4.00;;;;;17.91;49.76;100618.25;4999782;28;46304;-47
2023/03/30 00:03:26;;;;;;;;;4.00;4.00;;;;;18.02;49.89;100633.81;4999969;28;45456;-44
2023/03/30 00:05:55;;;;;;;;;6.00;4.25;;;;;18.00;50.06;100619.75;4999703;28;45366;-42
2023/03/30 00:08:26;;;;;;;;;5.75;2.75;;;;;18.01;50.13;100620.56;5000272;28;45366;-42
2023/03/30 00:10:54;;;;;;;;;5.50;4.50;;;;;17.93;50.23;100606.22;4982568;28;46934;-41
2023/03/30 00:13:20;;;;;;;;;7.00;4.25;;;;;17.99;50.65;100603.75;4999528;28;45235;-42
2023/03/30 00:15:45;;;;;;;;;6.50;4.00;;;;;17.93;49.75;100598.16;4999808;28;45414;-41
2023/03/30 00:18:10;;;;;;;;;6.00;5.00;;;;;17.94;51.21;100589.03;4982167;28;45567;-41
2023/03/30 00:20:36;;;;;;;;;9.75;6.50;;;;;17.93;51.19;100565.03;4998619;28;46962;-46
2023/03/30 00:23:01;;;;;;;;;7.75;4.25;;;;;17.86;51.73;100593.75;4999501;28;45444;-43
2023/03/30 00:25:27;;;;;;;;;5.25;4.50;;;;;17.79;50.83;100571.38;4998342;28;45401;-45
2023/03/30 00:27:52;;;;;;;;;5.25;4.00;;;;;17.77;51.72;100585.00;4999689;28;45412;-44
2023/03/30 00:30:18;;;;;;;;;11.75;5.75;;;;;17.74;51.28;100581.84;4999653;28;45984;-46
2023/03/30 00:32:45;;;;;;;;;12.00;5.50;;;;;17.67;51.72;100568.38;4999281;28;45254;-44
2023/03/30 00:35:11;;;;;;;;;6.25;4.00;;;;;17.59;51.36;100563.16;4999283;28;45384;-45
2023/03/30 00:37:37;;;;;;;;;4.00;4.00;;;;;17.42;50.95;100550.00;4999392;28;45537;-46
2023/03/30 00:40:06;;;;;;;;;2.50;2.50;;;;;17.46;51.21;100567.41;4999051;28;46857;-43
2023/03/30 00:42:33;;;;;;;;;6.33;5.67;;;;;17.45;51.62;100565.75;4999010;28;45388;-44
2023/03/30 00:45:16;;;;;;;;;3.00;3.00;;;;;17.48;51.03;100569.88;4999168;28;45322;-47
2023/03/30 00:47:47;;;;;;;;;5.75;3.75;;;;;17.46;51.12;100558.50;4999888;28;45629;-43
2023/03/30 00:50:13;;;;;;;;;5.00;4.00;;;;;17.41;51.73;100552.91;4998638;28;46071;-43
2023/03/30 00:52:40;;;;;;;;;6.00;4.33;;;;;17.34;52.31;100560.06;4998884;28;45520;-42
2023/03/30 00:55:08;;;;;;;;;4.67;4.67;;;;;17.35;52.44;100564.41;4999055;28;45365;-42
2023/03/30 00:57:37;;;;;;;;;4.00;4.00;;;;;17.33;53.26;100556.56;4999218;28;45371;-42
2023/03/30 01:00:07;;;;;;;;;4.67;4.00;;;;;17.34;53.51;100566.28;4998741;28;46249;-43
2023/03/30 01:02:40;;;;;;;;;4.33;4.00;;;;;17.29;53.09;100562.53;4997390;28;45405;-42
2023/03/30 01:05:07;;;;;;;;;5.50;4.00;;;;;17.32;52.29;100567.47;4998694;28;45354;-42
2023/03/30 01:07:33;;;;;;;;;5.33;5.00;;;;;17.27;54.62;100548.44;4998898;28;45298;-42
2023/03/30 01:10:00;;;;;;;;;4.00;4.00;;;;;17.25;53.46;100558.56;4998509;28;46207;-42
2023/03/30 01:12:25;;;;;;;;;5.67;5.00;;;;;17.22;53.57;100554.38;4998469;28;45473;-43
2023/03/30 01:14:51;;;;;;;;;3.50;3.25;;;;;17.08;54.21;100541.88;4998756;28;45229;-44
2023/03/30 01:17:38;;;;;;;;;7.00;4.33;;;;;17.14;54.41;100562.59;4999449;28;45227;-43
2023/03/30 01:20:30;;;;;;;;;4.33;4.00;;;;;17.14;53.83;100562.59;4998476;28;45241;-43
2023/03/30 01:23:05;;;;;;;;;5.25;3.00;;;;;17.10;54.68;100564.00;4998541;28;45243;-48
2023/03/30 01:26:01;;;;;;;;;4.00;4.00;;;;;17.04;53.85;100560.25;4998476;28;45409;-43
2023/03/30 01:28:51;;;;;;;;;4.33;4.33;;;;;17.04;53.99;100557.56;4999216;28;45546;-42
2023/03/30 01:31:41;;;;;;;;;0.00;0.00;;;;;17.04;54.09;100545.97;4997884;28;46397;-42
2023/03/30 01:34:18;;;;;;;;;5.00;4.33;;;;;17.02;53.58;100540.78;4997791;28;45378;-47
2023/03/30 01:36:56;;;;;;;;;3.67;3.67;;;;;16.97;54.81;100553.97;4998246;28;45261;-50
2023/03/30 01:39:36;;;;;;;;;2.33;2.00;;;;;16.96;54.75;100576.50;4998389;28;45271;-43
2023/03/30 01:42:31;;;;;;;;;2.67;2.67;;;;;16.94;54.48;100589.31;4997920;28;46180;-43
2023/03/30 01:45:20;;;;;;;;;2.00;2.00;;;;;16.96;54.50;100596.13;4998020;28;45392;-45
2023/03/30 01:48:17;;;;;;;;;7.33;3.00;;;;;16.97;54.23;100591.59;4998063;28;45472;-42
2023/03/30 01:50:52;;;;;;;;;5.50;2.75;;;;;16.96;54.69;100587.25;4996743;28;45566;-43
2023/03/30 01:53:17;;;;;;;;;2.00;2.00;;;;;17.00;54.54;100577.78;4997888;28;45410;-43
2023/03/30 01:56:02;;;;;;;;;2.00;1.00;;;;;16.99;54.52;100592.25;4997834;28;45448;-43
2023/03/30 01:58:55;;;;;;;;;2.25;2.00;;;;;16.96;54.02;100577.31;4998019;28;45313;-46
2023/03/30 02:01:22;;;;;;;;;4.00;2.00;;;;;16.99;54.43;100578.81;4998214;28;45721;-43
2023/03/30 02:03:53;;;;;;;;;1.75;1.75;;;;;16.97;54.23;100578.16;4997623;28;47316;-43
2023/03/30 02:06:28;;;;;;;;;4.75;2.00;;;;;16.94;54.13;100565.13;4997517;28;45418;-45
2023/03/30 02:08:58;;;;;;;;;2.00;2.00;;;;;16.97;53.81;100540.53;4997738;28;45520;-48
2023/03/30 02:11:25;;;;;;;;;5.50;3.00;;;;;16.95;54.26;100539.91;4998247;28;45369;-43
2023/03/30 02:13:54;;;;;;;;;5.50;3.00;;;;;16.97;54.06;100570.09;4997567;28;46217;-43
2023/03/30 02:16:32;;;;;;;;;4.00;3.00;;;;;16.92;53.59;100570.66;4997724;28;45243;-41
2023/03/30 02:18:58;;;;;;;;;2.00;2.00;;;;;16.88;54.16;100576.63;4997770;28;45445;-44
2023/03/30 02:21:24;;;;;;;;;4.75;3.00;;;;;16.85;54.19;100585.88;4997718;28;45270;-42
2023/03/30 02:23:53;;;;;;;;;4.00;4.00;;;;;16.82;54.06;100591.66;4997442;28;46333;-43
2023/03/30 02:26:21;;;;;;;;;3.67;3.67;;;;;16.81;54.44;100605.28;4997668;28;45345;-42
2023/03/30 02:28:48;;;;;;;;;5.00;2.00;;;;;16.83;54.19;100604.06;4997698;28;46033;-47
2023/03/30 02:31:15;;;;;;;;;4.00;2.00;;;;;16.79;54.14;100592.03;4997667;28;45268;-45
2023/03/30 02:33:46;;;;;;;;;2.50;1.75;;;;;16.83;53.91;100587.13;4997425;28;46072;-43
2023/03/30 02:36:43;;;;;;;;;2.33;2.33;;;;;16.81;54.05;100608.81;4997162;28;45333;-42
2023/03/30 02:39:49;;;;;;;;;4.00;2.00;;;;;16.80;54.09;100623.25;4975479;28;45420;-44
2023/03/30 02:42:40;;;;;;;;;2.33;2.00;;;;;16.77;54.02;100626.34;4975240;28;45715;-43
2023/03/30 02:45:11;;;;;;;;;1.67;1.67;;;;;16.76;53.83;100639.94;4975100;28;47065;-42
2023/03/30 02:47:52;;;;;;;;;3.00;1.00;;;;;16.71;54.19;100627.88;4975363;28;45314;-43
2023/03/30 02:50:42;;;;;;;;;2.00;0.25;;;;;16.68;53.88;100624.72;4975273;28;45366;-42
2023/03/30 02:53:12;;;;;;;;;2.00;1.00;;;;;16.65;53.99;100634.00;4974931;28;45260;-42
2023/03/30 02:56:02;;;;;;;;;1.00;1.00;;;;;16.54;54.21;100606.81;4975091;28;46016;-42
2023/03/30 02:58:43;;;;;;;;;2.00;2.00;;;;;16.60;54.43;100625.69;4974388;28;45433;-46
2023/03/30 03:01:16;;;;;;;;;5.00;2.00;;;;;16.61;53.84;100610.41;4975303;28;45561;-43
2023/03/30 03:03:45;;;;;;;;;3.67;2.00;;;;;16.58;53.66;100632.28;4975458;28;45416;-45
2023/03/30 03:06:13;;;;;;;;;1.50;1.50;;;;;16.53;53.75;100637.38;4974114;28;45451;-44
2023/03/30 03:08:41;;;;;;;;;2.00;2.00;;;;;16.46;54.03;100635.44;4975097;28;45482;-44
2023/03/30 03:11:08;;;;;;;;;1.33;1.00;;;;;16.51;54.48;100634.88;4975080;28;45376;-49
2023/03/30 03:13:38;;;;;;;;;4.00;2.00;;;;;16.46;54.62;100613.13;4975376;28;45456;-43
2023/03/30 03:16:05;;;;;;;;;1.00;1.00;;;;;16.42;54.96;100609.16;4986463;28;45304;-41
2023/03/30 03:18:30;;;;;;;;;3.33;2.00;;;;;16.43;54.75;100618.84;4997153;28;45398;-44
2023/03/30 03:20:57;;;;;;;;;2.00;1.00;;;;;16.43;54.95;100618.84;4997504;28;45963;-42
2023/03/30 03:23:22;;;;;;;;;3.00;1.00;;;;;16.41;55.07;100621.75;4996885;28;45354;-44
2023/03/30 03:25:48;;;;;;;;;2.00;1.00;;;;;16.38;54.67;100624.78;4996597;28;45282;-46
2023/03/30 03:28:13;;;;;;;;;1.00;1.00;;;;;16.39;55.11;100617.56;4996775;28;45353;-43
2023/03/30 03:30:38;;;;;;;;;2.00;2.00;;;;;16.38;55.38;100616.75;4996821;28;45310;-44
2023/03/30 03:33:03;;;;;;;;;1.00;1.00;;;;;16.38;55.39;100640.06;4996712;28;45456;-43
2023/03/30 03:35:30;;;;;;;;;1.67;1.00;;;;;16.36;55.36;100642.94;4996804;28;45329;-43
2023/03/30 03:37:55;;;;;;;;;3.33;2.00;;;;;16.35;55.47;100629.69;4995346;28;45480;-46
2023/03/30 03:40:20;;;;;;;;;3.00;2.00;;;;;16.32;55.33;100640.84;4995541;28;45527;-43
2023/03/30 03:42:46;;;;;;;;;1.67;1.00;;;;;16.30;55.14;100626.75;4996908;28;45224;-44
2023/03/30 03:45:11;;;;;;;;;3.00;1.00;;;;;16.25;56.20;100621.13;4996561;28;45445;-43
2023/03/30 03:47:36;;;;;;;;;2.33;2.33;;;;;16.19;56.13;100623.53;4996649;28;45302;-44
2023/03/30 03:50:05;;;;;;;;;1.00;1.00;;;;;16.13;56.22;100624.25;4996675;28;45164;-43
2023/03/30 03:52:31;;;;;;;;;1.00;0.50;;;;;16.13;55.95;100629.63;4996781;28;45607;-44
2023/03/30 03:54:56;;;;;;;;;1.50;0.50;;;;;16.06;55.75;100633.25;4996579;28;45322;-44
2023/03/30 03:57:24;;;;;;;;;1.00;1.00;;;;;16.00;56.25;100634.81;4999758;28;45462;-43
2023/03/30 03:59:55;;;;;;;;;4.00;2.33;;;;;16.00;56.38;100625.94;5000028;28;45329;-44
2023/03/30 04:02:20;;;;;;;;;1.67;1.00;;;;;15.92;56.84;100635.72;4983160;28;45243;-44
2023/03/30 04:04:45;;;;;;;;;1.00;1.00;;;;;15.87;57.04;100640.81;4999438;28;45538;-44
2023/03/30 04:07:11;;;;;;;;;2.00;1.00;;;;;15.84;57.02;100643.84;4999680;28;45410;-44
2023/03/30 04:09:36;;;;;;;;;2.00;2.00;;;;;15.79;57.63;100654.31;4999699;28;45286;-43
2023/03/30 04:12:02;;;;;;;;;5.00;2.00;;;;;15.80;56.95;100653.31;5000096;28;45367;-44
2023/03/30 04:14:27;;;;;;;;;2.33;2.00;;;;;15.75;57.57;100644.97;4999621;28;46273;-47
2023/03/30 04:16:56;;;;;;;;;1.00;1.00;;;;;15.70;57.50;100639.31;4999335;28;45437;-43
2023/03/30 04:19:24;;;;;;;;;5.67;1.33;;;;;15.66;57.61;100633.47;4999683;28;45414;-45
2023/03/30 04:21:50;;;;;;;;;5.00;2.00;;;;;15.61;58.18;100637.72;4999538;28;45313;-44
2023/03/30 04:24:16;;;;;;;;;1.33;1.33;;;;;15.58;57.83;100633.53;4999396;28;46735;-44
2023/03/30 04:26:47;;;;;;;;;1.00;1.00;;;;;15.57;57.58;100639.09;4999329;28;45261;-43
2023/03/30 04:29:14;;;;;;;;;5.00;2.00;;;;;15.44;58.24;100621.78;4999330;28;45200;-45
2023/03/30 04:31:41;;;;;;;;;4.00;2.33;;;;;15.47;58.66;100645.53;4999628;28;45244;-44
2023/03/30 04:34:08;;;;;;;;;1.67;1.67;;;;;15.42;58.72;100639.03;4999316;28;45364;-44
2023/03/30 04:36:34;;;;;;;;;2.67;1.33;;;;;15.42;58.61;100636.34;4999252;28;45347;-43
2023/03/30 04:39:00;;;;;;;;;1.00;1.00;;;;;15.36;58.87;100647.81;4999122;28;45433;-44
2023/03/30 04:41:34;;;;;;;;;2.00;1.00;;;;;15.39;58.87;100655.50;4991254;28;45373;-44
2023/03/30 04:44:04;;;;;;;;;1.00;1.00;;;;;15.32;58.82;100625.06;4959698;28;46165;-47
2023/03/30 04:46:30;;;;;;;;;1.33;1.33;;;;;15.33;59.29;100637.44;4959910;28;45332;-43
2023/03/30 04:48:55;;;;;;;;;0.00;0.00;;;;;15.27;59.24;100633.66;4959963;28;45318;-43
2023/03/30 04:51:21;;;;;;;;;1.67;1.67;;;;;15.22;59.31;100636.03;4959920;28;45533;-42
2023/03/30 04:53:46;;;;;;;;;1.67;1.33;;;;;15.15;59.15;100632.41;4959781;28;45290;-45
2023/03/30 04:56:12;;;;;;;;;2.67;1.00;;;;;15.26;59.69;100656.09;4959796;28;45401;-43
2023/03/30 04:58:37;;;;;;;;;1.33;1.33;;;;;15.27;59.26;100654.25;4959808;28;45464;-41
2023/03/30 05:01:03;;;;;;;;;0.67;0.67;;;;;15.22;59.36;100657.47;4959904;28;45486;-43
2023/03/30 05:03:29;;;;;;;;;2.00;1.33;;;;;15.23;59.41;100659.13;4959742;28;45854;-44
2023/03/30 05:05:54;;;;;;;;;2.33;1.67;;;;;15.20;59.70;100673.72;4959311;28;45293;-45
2023/03/30 05:08:20;;;;;;;;;3.00;1.00;;;;;15.15;59.72;100661.88;4959529;28;45443;-44
2023/03/30 05:10:45;;;;;;;;;1.33;1.00;;;;;15.17;59.77;100671.41;4959839;28;45374;-43
2023/03/30 05:13:11;;;;;;;;;2.67;1.00;;;;;15.13;60.11;100666.59;4959355;28;45973;-44
2023/03/30 05:15:36;;;;;;;;;4.33;1.00;;;;;15.12;59.72;100673.75;4959373;28;45163;-46
2023/03/30 05:18:02;;;;;;;;;2.00;2.00;;;;;15.10;60.14;100688.38;4990882;28;45356;-44
2023/03/30 05:20:27;;;;;;;;;1.67;1.00;;;;;15.08;60.26;100687.69;4959789;28;45313;-44
2023/03/30 05:22:53;;;;;;;;;1.00;1.00;;;;;15.07;60.13;100712.81;4959355;28;45381;-42
2023/03/30 05:25:18;;;;;;;;;4.00;2.00;;;;;15.05;60.14;100720.22;4959150;28;45301;-42
2023/03/30 05:27:44;;;;;;;;;4.00;2.00;;;;;15.08;60.41;100715.31;4960186;28;45230;-43
2023/03/30 05:30:10;;;;;;;;;2.33;1.67;;;;;15.08;59.83;100709.97;4959547;28;45405;-46
2023/03/30 05:32:36;;;;;;;;;2.00;2.00;;;;;15.12;60.41;100713.97;4959272;28;46384;-43
2023/03/30 05:35:01;;;;;;;;;2.33;2.33;;;;;15.13;60.48;100734.41;4959009;28;45390;-49
2023/03/30 05:37:26;;;;;;;;;5.00;1.33;;;;;15.15;59.91;100728.84;4959222;28;45595;-52
2023/03/30 05:39:52;;;;;;;;;4.33;1.00;;;;;15.17;59.65;100727.69;4959274;28;45432;-46
2023/03/30 05:42:17;;;;;;;;;7.33;1.00;;;;;15.10;60.59;100715.16;4997415;28;46602;-44
2023/03/30 05:44:43;;;;;;;;;4.67;2.33;;;;;15.17;60.05;100726.84;4998212;28;45412;-51
2023/03/30 05:47:08;;;;;;;;;3.00;0.00;;;;;15.21;59.97;100728.13;4998473;28;45334;-52
2023/03/30 05:49:33;;;;;;;;;1.67;1.00;;;;;15.17;60.30;100735.72;4998380;28;45330;-43
2023/03/30 05:51:59;;;;;;;;;2.00;2.00;;;;;15.17;60.36;100742.94;4997924;28;47429;-47
2023/03/30 05:54:26;;;;;;;;;4.00;2.00;;;;;15.16;59.96;100742.06;4997795;28;45337;-44
2023/03/30 05:56:51;;;;;;;;;2.33;1.00;;;;;15.15;60.60;100748.44;4997983;28;45322;-44
2023/03/30 05:59:17;;;;;;;;;3.33;1.67;;;;;15.13;60.31;100753.16;4998156;28;45334;-45
2023/03/30 06:01:43;;;;;;;;;3.33;2.00;;;;;15.10;60.55;100750.81;4997875;28;45910;-42
2023/03/30 06:04:09;;;;;;;;;3.33;2.00;;;;;15.09;60.67;100746.47;4997882;28;45424;-47
2023/03/30 06:06:34;;;;;;;;;3.00;1.33;;;;;14.99;60.63;100745.84;4997876;28;45339;-49
2023/03/30 06:08:59;;;;;;;;;4.00;3.67;;;;;15.01;61.06;100751.06;4998029;28;45283;-51
2023/03/30 06:11:25;;;;;;;;;2.00;2.00;;;;;15.00;60.55;100763.63;4997841;28;46063;-46
2023/03/30 06:13:50;;;;;;;;;2.00;0.67;;;;;14.91;61.09;100743.22;4997663;28;45221;-49
2023/03/30 06:16:15;;;;;;;;;1.67;1.00;;;;;15.03;61.12;100770.44;4997848;28;45453;-51
2023/03/30 06:18:41;;;;;;;;;1.00;1.00;;;;;15.09;59.95;100765.25;4997379;28;45305;-43
2023/03/30 06:21:07;;;;;;;;;2.00;2.00;;;;;15.10;61.31;100772.25;4997690;28;45552;-43
2023/03/30 06:23:33;;;;;;;;;4.00;1.00;;;;;15.10;60.50;100772.25;4997597;28;45445;-46
2023/03/30 06:25:59;;;;;;;;;2.00;2.00;;;;;15.07;60.60;100767.25;4997734;28;45317;-54
2023/03/30 06:28:26;;;;;;;;;2.67;2.00;;;;;15.08;61.29;100773.44;4997789;28;45463;-44
2023/03/30 06:30:52;;;;;;;;;7.00;2.67;;;;;15.11;61.23;100779.28;4997486;28;46362;-43
2023/03/30 06:33:18;;;;;;;;;2.00;1.00;;;;;15.07;61.12;100766.41;4997336;28;45151;-53
2023/03/30 06:35:48;;;;;;;;;5.00;3.00;;;;;15.18;61.34;100787.47;4989504;28;46491;-54
2023/03/30 06:38:15;;;;;;;;;5.00;2.00;;;;;15.18;61.30;100790.16;4989743;28;45610;-51
2023/03/30 06:40:41;;;;;;;;;2.67;2.00;;;;;15.15;60.27;100775.25;4989815;28;46233;-54
2023/03/30 06:43:12;;;;;;;;;3.67;3.33;;;;;15.18;61.30;100780.25;4989586;28;45408;-54
2023/03/30 06:45:37;;;;;;;;;1.00;1.00;;;;;15.13;61.05;100781.81;4989542;28;45498;-51
2023/03/30 06:48:03;;;;;;;;;1.67;1.67;;;;;15.18;61.39;100795.50;4992833;28;45474;-49
2023/03/30 06:50:28;;;;;;;;;3.00;2.33;;;;;15.17;61.43;100801.88;4995052;28;45495;-55
2023/03/30 06:52:53;;;;;;;;;1.00;1.00;;;;;15.08;61.50;100786.81;4995014;28;47132;-54
2023/03/30 06:55:20;;;;;;;;;4.00;3.00;;;;;15.18;61.78;100827.66;4994701;28;45476;-52
2023/03/30 06:57:45;;;;;;;;;7.00;3.00;;;;;15.18;61.52;100824.97;4995430;28;45406;-49
2023/03/30 07:00:12;;;;;;;;;2.00;2.00;;;;;15.19;61.79;100838.19;4995473;28;47277;-52
2023/03/30 07:02:39;;;;;;;;;3.67;2.33;;;;;15.18;61.80;100827.66;4994745;28;45805;-53
2023/03/30 07:05:06;;;;;;;;;3.67;2.00;;;;;15.20;61.79;100829.13;4995504;28;45436;-45
2023/03/30 07:07:32;;;;;;;;;3.00;1.00;;;;;15.25;61.84;100827.78;4995340;28;45381;-46
2023/03/30 07:09:57;;;;;;;;;5.00;3.00;;;;;15.29;61.44;100835.28;4994746;28;45633;-45
2023/03/30 07:12:23;;;;;;;;;6.67;2.67;;;;;15.35;60.90;100829.25;4995086;28;46761;-47
2023/03/30 07:14:48;;;;;;;;;2.67;1.67;;;;;15.41;60.92;100838.41;4995182;28;45505;-45
2023/03/30 07:17:13;;;;;;;;;1.33;1.00;;;;;15.43;61.21;100847.97;4995530;28;45413;-45
2023/03/30 07:19:39;;;;;;;;;1.00;1.00;;;;;15.45;61.10;100839.75;4995258;28;46138;-52
2023/03/30 07:22:04;;;;;;;;;3.33;1.00;;;;;15.54;60.92;100844.03;4977313;28;45430;-52
2023/03/30 07:24:30;;;;;;;;;4.33;1.67;;;;;15.60;60.63;100847.88;4994867;28;45365;-48
2023/03/30 07:26:56;;;;;;;;;2.67;0.33;;;;;15.67;60.31;100851.53;4995333;28;45410;-46
2023/03/30 07:29:21;;;;;;;;;2.00;2.00;;;;;15.72;60.13;100846.50;4993364;28;47138;-53
2023/03/30 07:31:47;;;;;;;;;5.00;1.00;;;;;15.82;60.27;100840.88;4998199;28;45483;-53
2023/03/30 07:34:12;;;;;;;;;0.00;0.00;;;;;15.95;59.73;100852.69;4998143;28;45463;-44
2023/03/30 07:36:38;;;;;;;;;2.00;0.67;;;;;16.08;59.25;100857.44;4998723;28;45496;-44
2023/03/30 07:39:03;;;;;;;;;2.67;2.33;;;;;16.25;59.02;100857.31;4998040;28;46107;-45
2023/03/30 07:41:29;;;;;;;;;3.33;2.00;;;;;16.43;58.29;100855.13;4998251;28;45405;-46
2023/03/30 07:43:54;;;;;;;;;4.00;1.67;;;;;16.79;57.40;100847.25;4998576;28;45440;-45
2023/03/30 07:46:19;;;;;;;;;4.00;1.33;;;;;17.07;56.40;100847.44;4998367;28;45450;-44
2023/03/30 07:48:45;;;;;;;;;1.67;1.00;;;;;17.20;55.64;100853.00;4998682;28;47095;-54
2023/03/30 07:51:12;;;;;;;;;1.33;1.00;;;;;17.25;55.60;100857.78;4997661;28;45419;-49
2023/03/30 07:53:38;;;;;;;;;3.33;1.00;;;;;17.42;55.42;100866.47;4998334;28;46449;-54
2023/03/30 07:56:04;;;;;;;;;2.50;1.50;;;;;17.54;55.01;100854.22;4998596;28;45262;-51
2023/03/30 07:58:30;;;;;;;;;1.25;1.00;;;;;17.48;55.00;100854.97;4997941;28;45369;-54
2023/03/30 08:00:56;;;;;;;;;5.00;5.00;;;;;17.38;55.18;100876.78;4998103;28;45872;-52
2023/03/30 08:03:23;;;;;;;;;6.67;6.00;;;;;17.31;55.05;100862.41;4997986;28;45408;-52
2023/03/30 08:05:59;;;;;;;;;2.00;1.00;;;;;17.46;54.50;100865.91;4997878;28;45203;-45
2023/03/30 08:08:25;;;;;;;;;2.75;1.00;;;;;17.69;54.29;100864.91;4997413;28;45451;-46
2023/03/30 08:10:51;;;;;;;;;1.25;1.25;;;;;17.98;53.25;100860.50;4996835;28;45434;-46
2023/03/30 08:13:16;;;;;;;;;3.50;1.00;;;;;18.37;53.06;100855.47;4996826;28;45164;-47
2023/03/30 08:15:41;;;;;;;;;2.00;2.00;;;;;18.97;51.42;100871.25;4998217;28;45693;-45
2023/03/30 08:18:07;;;;;;;;;5.00;2.00;;;;;19.04;49.78;100858.63;4997495;28;45444;-48
2023/03/30 08:20:35;;;;;;;;;2.00;1.00;;;;;18.88;50.50;100855.25;4997415;28;46015;-55
2023/03/30 08:23:01;;;;;;;;;5.25;3.25;;;;;19.16;50.51;100871.34;4997708;28;45666;-46
2023/03/30 08:25:27;;;;;;;;;1.00;1.00;;;;;19.53;49.42;100871.91;4996542;28;45365;-51
2023/03/30 08:27:52;;;;;;;;;1.00;1.00;;;;;19.77;48.88;100875.97;4997546;28;45604;-48
2023/03/30 08:30:18;;;;;;;;;1.00;1.00;;;;;19.72;48.96;100880.31;4997283;28;45466;-50
2023/03/30 08:32:43;;;;;;;;;3.50;1.50;;;;;19.65;48.29;100889.22;4997443;28;45380;-50
2023/03/30 08:35:09;;;;;;;;;3.25;2.00;;;;;20.31;48.40;100876.84;4997563;28;45464;-52
2023/03/30 08:37:34;;;;;;;;;5.75;2.00;;;;;20.43;47.65;100861.69;4997052;28;46194;-52
2023/03/30 08:40:00;;;;;;;;;4.50;2.00;;;;;20.67;46.57;100885.41;4996830;28;45719;-49
2023/03/30 08:42:38;;;;;;;;;1.00;1.00;;;;;21.73;45.61;100894.25;4997026;28;45427;-51
2023/03/30 08:45:07;;;;;;;;;4.50;1.50;;;;;22.88;43.99;100884.88;4997397;28;45471;-49
2023/03/30 08:47:38;;;;;;;;;3.50;2.25;;;;;22.24;43.96;100882.50;4996706;28;46160;-47
2023/03/30 08:50:12;;;;;;;;;4.20;2.40;;;;;22.21;44.58;100896.50;4997358;28;45475;-43
2023/03/30 08:52:40;;;;;;;;;5.00;2.00;;;;;21.44;45.01;100901.88;4997223;28;45532;-45
2023/03/30 08:55:22;;;;;;;;;4.25;1.00;;;;;20.92;45.37;100901.81;4997291;28;45527;-45
2023/03/30 08:58:14;;;;;;;;;3.75;2.00;;;;;20.68;45.80;100916.81;4997330;28;45425;-46
2023/03/30 09:00:51;;;;;;;;;2.80;1.20;;;;;20.77;45.92;100920.13;4996838;28;45471;-45
2023/03/30 09:03:39;;;;;;;;;1.25;1.00;;;;;20.65;46.05;100916.41;4996493;28;45412;-47
2023/03/30 09:06:26;;;;;;;;;4.25;2.50;;;;;20.03;47.10;100926.50;4997200;28;45325;-45
2023/03/30 09:08:51;;;;;;;;;3.50;2.00;;;;;19.58;48.20;100912.63;4996805;28;46382;-43
2023/03/30 09:11:37;;;;;;;;;7.50;6.00;;;;;19.02;49.29;100925.41;4997149;28;45481;-50
2023/03/30 09:14:06;;;;;;;;;3.25;3.00;;;;;18.64;50.06;100940.03;4997256;28;45255;-49
2023/03/30 09:16:48;;;;;;;;;6.75;3.00;;;;;18.25;51.08;100935.13;4996980;28;45453;-52
2023/03/30 09:19:23;;;;;;;;;1.75;1.50;;;;;18.07;51.77;100930.16;4996161;28;47430;-45
2023/03/30 09:21:49;;;;;;;;;2.75;1.75;;;;;18.37;51.03;100927.34;4997254;28;45349;-46
2023/03/30 09:24:23;;;;;;;;;0.00;0.00;;;;;18.42;50.92;100930.31;4996545;28;45389;-45
2023/03/30 09:26:58;;;;;;;;;1.00;1.00;;;;;18.26;51.25;100923.31;4996692;28;45300;-45
2023/03/30 09:29:29;;;;;;;;;5.00;1.00;;;;;18.06;51.73;100930.34;4996718;28;45378;-46
2023/03/30 09:32:08;;;;;;;;;2.75;1.75;;;;;17.88;52.16;100925.41;4996814;28;46513;-42
2023/03/30 09:34:46;;;;;;;;;3.00;2.00;;;;;17.72;52.81;100947.97;4996603;28;45400;-44
2023/03/30 09:37:20;;;;;;;;;6.50;1.00;;;;;18.20;52.51;100940.22;4990692;28;45393;-43
2023/03/30 09:39:46;;;;;;;;;1.75;1.75;;;;;19.33;50.59;100936.56;4993832;28;46240;-45
2023/03/30 09:42:26;;;;;;;;;2.00;1.00;;;;;20.27;48.91;100929.63;4996396;28;45272;-46
2023/03/30 09:44:59;;;;;;;;;2.50;2.50;;;;;21.11;46.71;100935.28;4996809;28;45416;-44
2023/03/30 09:47:26;;;;;;;;;2.50;2.00;;;;;21.73;45.04;100927.59;4996539;28;45464;-44
2023/03/30 09:50:01;;;;;;;;;4.25;1.50;;;;;22.24;44.13;100923.16;4996479;28;47275;-45
2023/03/30 09:52:28;;;;;;;;;2.00;2.00;;;;;21.96;43.95;100937.06;4995925;28;45580;-44
2023/03/30 09:54:54;;;;;;;;;4.00;2.20;;;;;23.05;43.22;100936.69;4995733;28;45457;-45
2023/03/30 09:57:28;;;;;;;;;3.75;3.00;;;;;22.52;42.22;100939.84;4997083;28;45433;-46
2023/03/30 09:59:55;;;;;;;;;2.00;1.00;;;;;21.92;43.65;100932.09;4994211;28;46191;-43
2023/03/30 10:02:22;;;;;;;;;6.00;3.40;;;;;21.35;44.31;100938.34;4996006;28;45442;-44
2023/03/30 10:04:56;;;;;;;;;4.80;2.80;;;;;20.79;45.41;100957.78;4996779;28;45526;-45
2023/03/30 10:07:38;;;;;;;;;3.00;2.00;;;;;21.01;45.83;100937.56;4996557;28;45429;-45
2023/03/30 10:10:26;;;;;;;;;4.50;2.25;;;;;20.38;45.95;100932.56;4978119;28;46520;-45
2023/03/30 10:13:12;;;;;;;;;4.20;3.00;;;;;19.78;47.14;100957.78;4996484;28;45563;-44
2023/03/30 10:15:40;;;;;;;;;1.20;1.20;;;;;19.48;47.48;100951.81;4993716;28;45474;-45
2023/03/30 10:18:22;;;;;;;;;8.25;4.25;;;;;19.19;48.11;100957.25;4996034;28;45419;-43
2023/03/30 10:21:17;;;;;;;;;2.00;2.00;;;;;18.94;48.54;100946.09;4991629;28;47231;-45
2023/03/30 10:23:44;;;;;;;;;3.60;1.40;;;;;19.82;46.44;100950.94;4991154;28;45492;-43
2023/03/30 10:26:17;;;;;;;;;4.50;2.50;;;;;21.84;44.58;100947.75;4996053;28;45362;-44
2023/03/30 10:29:01;;;;;;;;;6.25;2.00;;;;;22.40;41.82;100938.88;4995716;28;45406;-43
2023/03/30 10:31:27;;;;;;;;;2.25;1.25;;;;;21.84;41.89;100940.47;4995231;28;45922;-44
2023/03/30 10:33:57;;;;;;;;;3.00;2.50;;;;;21.40;43.05;100941.25;4995692;28;45473;-43
2023/03/30 10:36:28;;;;;;;;;5.60;3.00;;;;;21.05;44.29;100930.69;4996266;28;45488;-43
2023/03/30 10:38:53;;;;;;;;;6.50;4.00;;;;;20.64;44.01;100952.56;4995975;28;45480;-44
2023/03/30 10:41:22;;;;;;;;;3.75;3.00;;;;;20.06;45.17;100942.31;4995761;28;46189;-43
2023/03/30 10:43:49;;;;;;;;;3.40;2.00;;;;;19.52;46.42;100935.03;4995294;28;45610;-45
2023/03/30 10:46:21;;;;;;;;;5.25;3.00;;;;;19.37;47.72;100947.81;4995734;28;45216;-46
2023/03/30 10:48:46;;;;;;;;;4.75;2.00;;;;;22.95;42.84;100932.81;4996131;28;45460;-42
2023/03/30 10:51:14;;;;;;;;;5.50;3.00;;;;;26.73;36.97;100916.19;4994876;28;47093;-43
2023/03/30 10:53:51;;;;;;;;;5.20;2.80;;;;;29.47;32.04;100907.38;4995492;28;45580;-43
2023/03/30 10:56:50;;;;;;;;;3.00;0.80;;;;;29.82;30.46;100915.72;4995791;28;45477;-44
2023/03/30 10:59:50;;;;;;;;;6.60;2.20;;;;;28.80;31.50;100908.94;4993408;28;45484;-43
2023/03/30 11:02:49;;;;;;;;;5.40;2.60;;;;;26.42;33.25;100901.22;4995317;28;46359;-42
2023/03/30 11:05:24;;;;;;;;;4.00;2.60;;;;;25.24;35.35;100924.53;4997603;28;45373;-43
2023/03/30 11:07:54;;;;;;;;;6.60;3.00;;;;;24.67;36.40;100929.75;4980788;28;45497;-43
2023/03/30 11:10:30;;;;;;;;;4.80;3.20;;;;;23.87;36.81;100920.88;4998364;28;45426;-45
2023/03/30 11:13:10;;;;;;;;;6.00;3.00;;;;;23.37;39.13;100922.97;4998556;28;46179;-44
2023/03/30 11:15:59;;;;;;;;;5.40;1.00;;;;;24.50;38.32;100933.16;4998223;28;45449;-42
2023/03/30 11:18:33;;;;;;;;;0.80;0.80;;;;;26.62;34.65;100907.00;4999113;28;45397;-44
2023/03/30 11:21:03;;;;;;;;;2.40;2.40;;;;;28.90;31.83;100909.00;4998644;28;45556;-43
2023/03/30 11:23:42;;;;;;;;;1.80;1.80;;;;;31.45;29.37;100911.25;4998292;28;46120;-43
2023/03/30 11:26:15;;;;;;;;;1.60;1.00;;;;;32.50;26.71;100921.88;4998531;28;45330;-46
2023/03/30 11:28:47;;;;;;;;;1.80;1.20;;;;;33.42;26.21;100911.81;4998285;28;45393;-45
2023/03/30 11:31:38;;;;;;;;;1.80;0.80;;;;;34.09;22.71;100897.91;4997866;28;45420;-46
2023/03/30 11:34:16;;;;;;;;;4.80;0.80;;;;;34.36;24.51;100900.78;4998172;28;46396;-47
2023/03/30 11:37:07;;;;;;;;;1.20;1.20;;;;;32.41;25.30;100900.75;4998186;28;45473;-46
2023/03/30 11:39:36;;;;;;;;;6.20;2.80;;;;;29.69;27.04;100907.22;4984046;28;45553;-44